sensor_id;sensor_type;location;lat;lon;timestamp;pressure;altitude;pressure_sealevel;temperature;humidity
48964;BME280;34776;48.180;16.420;2023-02-04T00:01:38;99832.44;;;7.33;66.34
48964;BME280;34776;48.180;16.420;2023-02-04T00:04:03;99837.72;;;7.33;66.63
48964;BME280;34776;48.180;16.420;2023-02-04T00:06:29;99834.13;;;7.34;66.48
48964;BME280;34776;48.180;16.420;2023-02-04T00:08:54;99828.75;;;7.37;66.55
48964;BME280;34776;48.180;16.420;2023-02-04T00:11:19;99832.31;;;7.36;66.81
48964;BME280;34776;48.180;16.420;2023-02-04T00:13:45;99832.34;;;7.35;66.25
48964;BME280;34776;48.180;16.420;2023-02-04T00:16:10;99839.38;;;7.36;66.36
48964;BME280;34776;48.180;16.420;2023-02-04T00:18:36;99837.59;;;7.36;66.22
48964;BME280;34776;48.180;16.420;2023-02-04T00:21:01;99837.59;;;7.36;65.75
48964;BME280;34776;48.180;16.420;2023-02-04T00:23:27;99835.75;;;7.38;65.90
48964;BME280;34776;48.180;16.420;2023-02-04T00:25:52;99845.41;;;7.39;65.72
48964;BME280;34776;48.180;16.420;2023-02-04T00:28:17;99842.88;;;7.36;65.01
48964;BME280;34776;48.180;16.420;2023-02-04T00:30:43;99834.91;;;7.38;65.31
48964;BME280;34776;48.180;16.420;2023-02-04T00:33:08;99825.19;;;7.38;65.02
48964;BME280;34776;48.180;16.420;2023-02-04T00:35:34;99821.50;;;7.42;64.74
48964;BME280;34776;48.180;16.420;2023-02-04T00:38:02;99818.91;;;7.41;64.24
48964;BME280;34776;48.180;16.420;2023-02-04T00:40:27;99828.56;;;7.42;64.36
48964;BME280;34776;48.180;16.420;2023-02-04T00:42:53;99822.34;;;7.43;64.04
48964;BME280;34776;48.180;16.420;2023-02-04T00:45:18;99822.31;;;7.44;63.14
48964;BME280;34776;48.180;16.420;2023-02-04T00:47:43;99817.94;;;7.43;62.76
48964;BME280;34776;48.180;16.420;2023-02-04T00:50:09;99808.94;;;7.47;62.10
48964;BME280;34776;48.180;16.420;2023-02-04T00:52:34;99818.56;;;7.50;61.71
48964;BME280;34776;48.180;16.420;2023-02-04T00:54:59;99806.19;;;7.50;62.08
48964;BME280;34776;48.180;16.420;2023-02-04T00:57:25;99801.72;;;7.52;61.50
48964;BME280;34776;48.180;16.420;2023-02-04T00:59:50;99799.81;;;7.56;61.44
48964;BME280;34776;48.180;16.420;2023-02-04T01:02:15;99806.00;;;7.55;60.62
48964;BME280;34776;48.180;16.420;2023-02-04T01:04:41;99788.31;;;7.57;60.78
48964;BME280;34776;48.180;16.420;2023-02-04T01:07:06;99797.91;;;7.60;60.75
48964;BME280;34776;48.180;16.420;2023-02-04T01:09:32;99791.75;;;7.59;60.59
48964;BME280;34776;48.180;16.420;2023-02-04T01:11:58;99791.75;;;7.59;60.72
48964;BME280;34776;48.180;16.420;2023-02-04T01:14:23;99779.34;;;7.61;60.32
48964;BME280;34776;48.180;16.420;2023-02-04T01:16:48;99769.50;;;7.65;59.68
48964;BME280;34776;48.180;16.420;2023-02-04T01:19:14;99790.66;;;7.65;59.87
48964;BME280;34776;48.180;16.420;2023-02-04T01:21:39;99775.59;;;7.67;59.71
48964;BME280;34776;48.180;16.420;2023-02-04T01:24:05;99769.38;;;7.68;59.09
48964;BME280;34776;48.180;16.420;2023-02-04T01:26:30;99780.81;;;7.68;59.16
48964;BME280;34776;48.180;16.420;2023-02-04T01:28:55;99768.66;;;7.64;59.06
48964;BME280;34776;48.180;16.420;2023-02-04T01:31:21;99782.03;;;7.60;59.55
48964;BME280;34776;48.180;16.420;2023-02-04T01:33:46;99783.88;;;7.58;60.20
48964;BME280;34776;48.180;16.420;2023-02-04T01:36:11;99794.69;;;7.51;61.20
48964;BME280;34776;48.180;16.420;2023-02-04T01:38:37;99791.97;;;7.31;62.31
48964;BME280;34776;48.180;16.420;2023-02-04T01:41:03;99791.09;;;7.07;63.39
48964;BME280;34776;48.180;16.420;2023-02-04T01:43:29;99787.84;;;7.00;64.07
48964;BME280;34776;48.180;16.420;2023-02-04T01:45:55;99783.22;;;7.05;64.35
48964;BME280;34776;48.180;16.420;2023-02-04T01:48:21;99789.09;;;7.14;64.43
48964;BME280;34776;48.180;16.420;2023-02-04T01:51:14;99795.09;;;7.19;63.04
48964;BME280;34776;48.180;16.420;2023-02-04T01:53:41;99786.16;;;7.21;64.21
48964;BME280;34776;48.180;16.420;2023-02-04T01:56:19;99775.97;;;7.12;64.22
48964;BME280;34776;48.180;16.420;2023-02-04T01:58:45;99775.22;;;7.08;64.61
48964;BME280;34776;48.180;16.420;2023-02-04T02:01:32;99788.50;;;7.05;64.15
48964;BME280;34776;48.180;16.420;2023-02-04T02:03:59;99778.59;;;7.12;64.92
48964;BME280;34776;48.180;16.420;2023-02-04T02:06:25;99788.19;;;7.15;65.00
48964;BME280;34776;48.180;16.420;2023-02-04T02:08:50;99786.22;;;7.20;64.81
48964;BME280;34776;48.180;16.420;2023-02-04T02:11:16;99788.69;;;7.24;64.78
48964;BME280;34776;48.180;16.420;2023-02-04T02:13:41;99788.81;;;7.21;64.02
48964;BME280;34776;48.180;16.420;2023-02-04T02:16:07;99788.75;;;7.23;63.46
48964;BME280;34776;48.180;16.420;2023-02-04T02:18:32;99786.78;;;7.28;63.34
48964;BME280;34776;48.180;16.420;2023-02-04T02:21:03;99761.16;;;7.30;63.21
48964;BME280;34776;48.180;16.420;2023-02-04T02:26:07;99773.41;;;7.32;63.03
48964;BME280;34776;48.180;16.420;2023-02-04T02:28:32;99771.63;;;7.33;62.54
48964;BME280;34776;48.180;16.420;2023-02-04T02:30:58;99774.16;;;7.36;61.82
48964;BME280;34776;48.180;16.420;2023-02-04T02:33:23;99776.56;;;7.42;61.35
48964;BME280;34776;48.180;16.420;2023-02-04T02:35:50;99768.38;;;7.48;61.24
48964;BME280;34776;48.180;16.420;2023-02-04T02:38:17;99755.13;;;7.50;60.37
48964;BME280;34776;48.180;16.420;2023-02-04T02:40:43;99751.47;;;7.52;60.17
48964;BME280;34776;48.180;16.420;2023-02-04T02:43:18;99768.16;;;7.55;60.14
48964;BME280;34776;48.180;16.420;2023-02-04T02:45:44;99748.59;;;7.59;59.92
48964;BME280;34776;48.180;16.420;2023-02-04T02:48:10;99736.16;;;7.61;59.32
48964;BME280;34776;48.180;16.420;2023-02-04T02:50:36;99755.47;;;7.63;59.24
48964;BME280;34776;48.180;16.420;2023-02-04T02:53:02;99750.91;;;7.66;59.52
48964;BME280;34776;48.180;16.420;2023-02-04T02:55:28;99753.63;;;7.65;59.76
48964;BME280;34776;48.180;16.420;2023-02-04T02:57:55;99753.63;;;7.65;59.51
48964;BME280;34776;48.180;16.420;2023-02-04T03:00:26;99767.75;;;7.64;59.35
48964;BME280;34776;48.180;16.420;2023-02-04T03:02:58;99774.00;;;7.63;59.88
48964;BME280;34776;48.180;16.420;2023-02-04T03:05:26;99764.47;;;7.59;59.94
48964;BME280;34776;48.180;16.420;2023-02-04T03:07:52;99757.31;;;7.61;60.11
48964;BME280;34776;48.180;16.420;2023-02-04T03:10:17;99760.78;;;7.63;59.91
48964;BME280;34776;48.180;16.420;2023-02-04T03:12:44;99753.75;;;7.62;59.26
48964;BME280;34776;48.180;16.420;2023-02-04T03:15:10;99744.91;;;7.63;58.94
48964;BME280;34776;48.180;16.420;2023-02-04T03:17:35;99744.91;;;7.63;58.55
48964;BME280;34776;48.180;16.420;2023-02-04T03:20:02;99735.97;;;7.65;58.75
48964;BME280;34776;48.180;16.420;2023-02-04T03:22:28;99758.19;;;7.61;58.90
48964;BME280;34776;48.180;16.420;2023-02-04T03:24:53;99767.97;;;7.59;59.24
48964;BME280;34776;48.180;16.420;2023-02-04T03:27:19;99772.88;;;7.46;59.93
48964;BME280;34776;48.180;16.420;2023-02-04T03:29:45;99742.56;;;7.33;60.42
48964;BME280;34776;48.180;16.420;2023-02-04T03:32:11;99744.16;;;7.37;60.44
48964;BME280;34776;48.180;16.420;2023-02-04T03:34:36;99764.28;;;7.41;60.53
48964;BME280;34776;48.180;16.420;2023-02-04T03:37:02;99742.94;;;7.46;60.13
48964;BME280;34776;48.180;16.420;2023-02-04T03:39:27;99759.66;;;7.46;59.98
48964;BME280;34776;48.180;16.420;2023-02-04T03:41:52;99749.94;;;7.47;59.86
48964;BME280;34776;48.180;16.420;2023-02-04T03:44:18;99763.91;;;7.50;59.95
48964;BME280;34776;48.180;16.420;2023-02-04T03:46:43;99759.50;;;7.49;59.72
48964;BME280;34776;48.180;16.420;2023-02-04T03:49:09;99776.13;;;7.53;59.76
48964;BME280;34776;48.180;16.420;2023-02-04T03:51:34;99791.13;;;7.52;59.71
48964;BME280;34776;48.180;16.420;2023-02-04T03:54:00;99794.69;;;7.51;59.71
48964;BME280;34776;48.180;16.420;2023-02-04T03:56:25;99797.47;;;7.48;59.80
48964;BME280;34776;48.180;16.420;2023-02-04T03:58:50;99808.22;;;7.44;60.15
48964;BME280;34776;48.180;16.420;2023-02-04T04:01:16;99819.25;;;7.31;61.09
48964;BME280;34776;48.180;16.420;2023-02-04T04:03:41;99795.94;;;6.96;62.95
48964;BME280;34776;48.180;16.420;2023-02-04T04:06:06;99803.72;;;6.75;64.83
48964;BME280;34776;48.180;16.420;2023-02-04T04:08:34;99824.47;;;6.61;65.81
48964;BME280;34776;48.180;16.420;2023-02-04T04:10:59;99840.03;;;6.43;66.68
48964;BME280;34776;48.180;16.420;2023-02-04T04:13:25;99870.28;;;6.33;67.61
48964;BME280;34776;48.180;16.420;2023-02-04T04:15:50;99874.97;;;6.23;69.02
48964;BME280;34776;48.180;16.420;2023-02-04T04:18:15;99884.59;;;5.98;70.53
48964;BME280;34776;48.180;16.420;2023-02-04T04:20:41;99871.13;;;5.77;72.62
48964;BME280;34776;48.180;16.420;2023-02-04T04:23:06;99868.00;;;5.64;74.24
48964;BME280;34776;48.180;16.420;2023-02-04T04:25:31;99929.00;;;5.52;75.78
48964;BME280;34776;48.180;16.420;2023-02-04T04:27:57;99946.81;;;5.44;76.70
48964;BME280;34776;48.180;16.420;2023-02-04T04:30:22;99947.09;;;5.33;76.99
48964;BME280;34776;48.180;16.420;2023-02-04T04:32:47;99977.06;;;5.29;78.50
48964;BME280;34776;48.180;16.420;2023-02-04T04:35:13;99983.34;;;5.25;79.07
48964;BME280;34776;48.180;16.420;2023-02-04T04:37:38;99983.72;;;5.09;78.90
48964;BME280;34776;48.180;16.420;2023-02-04T04:40:04;99992.72;;;5.02;80.05
48964;BME280;34776;48.180;16.420;2023-02-04T04:42:29;99989.41;;;4.94;79.57
48964;BME280;34776;48.180;16.420;2023-02-04T04:44:54;99996.50;;;4.91;80.28
48964;BME280;34776;48.180;16.420;2023-02-04T04:47:20;100006.16;;;4.92;80.11
48964;BME280;34776;48.180;16.420;2023-02-04T04:49:45;100020.16;;;4.94;79.29
48964;BME280;34776;48.180;16.420;2023-02-04T04:52:10;100016.53;;;4.98;78.41
48964;BME280;34776;48.180;16.420;2023-02-04T04:54:36;100048.03;;;5.02;77.95
48964;BME280;34776;48.180;16.420;2023-02-04T04:57:01;100066.31;;;5.08;77.43
48964;BME280;34776;48.180;16.420;2023-02-04T04:59:26;100019.72;;;5.11;74.92
48964;BME280;34776;48.180;16.420;2023-02-04T05:01:52;100050.34;;;5.15;74.13
48964;BME280;34776;48.180;16.420;2023-02-04T05:04:17;100073.06;;;5.19;73.17
48964;BME280;34776;48.180;16.420;2023-02-04T05:06:42;100058.94;;;5.23;72.87
48964;BME280;34776;48.180;16.420;2023-02-04T05:09:09;100084.38;;;5.22;71.59
48964;BME280;34776;48.180;16.420;2023-02-04T05:11:34;100099.31;;;5.22;71.17
48964;BME280;34776;48.180;16.420;2023-02-04T05:13:59;100092.41;;;5.18;70.53
48964;BME280;34776;48.180;16.420;2023-02-04T05:16:25;100097.00;;;5.09;70.66
48964;BME280;34776;48.180;16.420;2023-02-04T05:18:50;100088.63;;;4.94;69.92
48964;BME280;34776;48.180;16.420;2023-02-04T05:21:16;100108.19;;;4.82;69.99
48964;BME280;34776;48.180;16.420;2023-02-04T05:23:41;100116.09;;;4.82;69.51
48964;BME280;34776;48.180;16.420;2023-02-04T05:26:07;100144.13;;;4.83;68.58
48964;BME280;34776;48.180;16.420;2023-02-04T05:28:32;100149.47;;;4.80;69.08
48964;BME280;34776;48.180;16.420;2023-02-04T05:30:57;100158.28;;;4.79;69.08
48964;BME280;34776;48.180;16.420;2023-02-04T05:33:23;100165.19;;;4.83;69.50
48964;BME280;34776;48.180;16.420;2023-02-04T05:35:48;100179.13;;;4.88;68.76
48964;BME280;34776;48.180;16.420;2023-02-04T05:38:14;100175.59;;;4.89;69.09
48964;BME280;34776;48.180;16.420;2023-02-04T05:40:39;100178.22;;;4.89;68.27
48964;BME280;34776;48.180;16.420;2023-02-04T05:43:04;100189.59;;;4.91;68.61
48964;BME280;34776;48.180;16.420;2023-02-04T05:45:30;100190.53;;;4.88;69.00
48964;BME280;34776;48.180;16.420;2023-02-04T05:47:55;100178.16;;;4.92;69.26
48964;BME280;34776;48.180;16.420;2023-02-04T05:50:21;100194.13;;;4.84;68.44
48964;BME280;34776;48.180;16.420;2023-02-04T05:52:46;100209.16;;;4.81;68.08
48964;BME280;34776;48.180;16.420;2023-02-04T05:55:12;100224.03;;;4.82;68.44
48964;BME280;34776;48.180;16.420;2023-02-04T05:57:37;100241.59;;;4.81;68.92
48964;BME280;34776;48.180;16.420;2023-02-04T06:00:04;100238.16;;;4.78;68.39
48964;BME280;34776;48.180;16.420;2023-02-04T06:02:30;100257.50;;;4.77;68.23
48964;BME280;34776;48.180;16.420;2023-02-04T06:04:55;100254.88;;;4.77;68.63
48964;BME280;34776;48.180;16.420;2023-02-04T06:07:20;100289.94;;;4.79;68.72
48964;BME280;34776;48.180;16.420;2023-02-04T06:09:46;100296.06;;;4.78;68.74
48964;BME280;34776;48.180;16.420;2023-02-04T06:12:11;100303.13;;;4.76;67.88
48964;BME280;34776;48.180;16.420;2023-02-04T06:14:36;100318.94;;;4.74;67.97
48964;BME280;34776;48.180;16.420;2023-02-04T06:17:02;100325.03;;;4.78;68.42
48964;BME280;34776;48.180;16.420;2023-02-04T06:19:27;100334.69;;;4.77;67.96
48964;BME280;34776;48.180;16.420;2023-02-04T06:21:52;100347.88;;;4.76;67.47
48964;BME280;34776;48.180;16.420;2023-02-04T06:24:18;100353.22;;;4.73;66.72
48964;BME280;34776;48.180;16.420;2023-02-04T06:26:43;100366.44;;;4.70;67.09
48964;BME280;34776;48.180;16.420;2023-02-04T06:29:08;100372.53;;;4.72;67.21
48964;BME280;34776;48.180;16.420;2023-02-04T06:31:34;100372.59;;;4.68;66.95
48964;BME280;34776;48.180;16.420;2023-02-04T06:34:02;100397.25;;;4.64;66.01
48964;BME280;34776;48.180;16.420;2023-02-04T06:36:27;100411.34;;;4.60;66.32
48964;BME280;34776;48.180;16.420;2023-02-04T06:38:53;100418.41;;;4.58;66.68
48964;BME280;34776;48.180;16.420;2023-02-04T06:41:18;100433.44;;;4.52;65.91
48964;BME280;34776;48.180;16.420;2023-02-04T06:43:44;100408.00;;;4.49;66.15
48964;BME280;34776;48.180;16.420;2023-02-04T06:46:09;100459.78;;;4.48;66.82
48964;BME280;34776;48.180;16.420;2023-02-04T06:48:34;100472.09;;;4.48;66.51
48964;BME280;34776;48.180;16.420;2023-02-04T06:51:00;100471.22;;;4.46;66.22
48964;BME280;34776;48.180;16.420;2023-02-04T06:53:25;100485.28;;;4.45;66.23
48964;BME280;34776;48.180;16.420;2023-02-04T06:55:50;100486.19;;;4.44;66.11
48964;BME280;34776;48.180;16.420;2023-02-04T06:58:17;100499.34;;;4.44;66.51
48964;BME280;34776;48.180;16.420;2023-02-04T07:00:42;100502.91;;;4.38;66.06
48964;BME280;34776;48.180;16.420;2023-02-04T07:03:08;100500.34;;;4.34;65.11
48964;BME280;34776;48.180;16.420;2023-02-04T07:05:33;100532.88;;;4.30;64.68
48964;BME280;34776;48.180;16.420;2023-02-04T07:07:59;100529.47;;;4.21;64.27
48964;BME280;34776;48.180;16.420;2023-02-04T07:10:24;100532.22;;;4.14;63.98
48964;BME280;34776;48.180;16.420;2023-02-04T07:12:50;100555.94;;;4.09;64.20
48964;BME280;34776;48.180;16.420;2023-02-04T07:15:16;100562.97;;;4.07;63.91
48964;BME280;34776;48.180;16.420;2023-02-04T07:17:41;100567.34;;;4.08;64.19
48964;BME280;34776;48.180;16.420;2023-02-04T07:20:07;100585.78;;;4.05;63.96
48964;BME280;34776;48.180;16.420;2023-02-04T07:22:33;100576.19;;;4.02;63.14
48964;BME280;34776;48.180;16.420;2023-02-04T07:24:58;100601.63;;;4.02;63.16
48964;BME280;34776;48.180;16.420;2023-02-04T07:27:24;100606.81;;;4.08;63.16
48964;BME280;34776;48.180;16.420;2023-02-04T07:29:49;100633.91;;;4.15;63.06
48964;BME280;34776;48.180;16.420;2023-02-04T07:32:14;100624.31;;;4.09;61.83
48964;BME280;34776;48.180;16.420;2023-02-04T07:34:39;100668.16;;;4.07;62.12
48964;BME280;34776;48.180;16.420;2023-02-04T07:37:05;100680.53;;;3.99;60.89
48964;BME280;34776;48.180;16.420;2023-02-04T07:39:30;100671.78;;;3.97;60.38
48964;BME280;34776;48.180;16.420;2023-02-04T07:41:55;100692.81;;;3.97;59.81
48964;BME280;34776;48.180;16.420;2023-02-04T07:44:21;100692.81;;;3.97;59.52
48964;BME280;34776;48.180;16.420;2023-02-04T07:46:46;100712.16;;;3.93;58.69
48964;BME280;34776;48.180;16.420;2023-02-04T07:49:11;100706.06;;;3.86;57.73
48964;BME280;34776;48.180;16.420;2023-02-04T07:51:37;100724.50;;;3.84;57.56
48964;BME280;34776;48.180;16.420;2023-02-04T07:54:02;100734.94;;;3.94;57.42
48964;BME280;34776;48.180;16.420;2023-02-04T07:56:27;100732.31;;;3.92;57.09
48964;BME280;34776;48.180;16.420;2023-02-04T07:58:53;100753.34;;;3.92;57.24
48964;BME280;34776;48.180;16.420;2023-02-04T08:01:18;100757.69;;;3.95;57.32
48964;BME280;34776;48.180;16.420;2023-02-04T08:03:44;100750.66;;;3.98;57.59
48964;BME280;34776;48.180;16.420;2023-02-04T08:06:09;100760.22;;;4.09;57.62
48964;BME280;34776;48.180;16.420;2023-02-04T08:08:35;100780.34;;;4.11;57.86
48964;BME280;34776;48.180;16.420;2023-02-04T08:11:00;100797.94;;;4.06;58.18
48964;BME280;34776;48.180;16.420;2023-02-04T08:13:26;100791.81;;;4.01;58.71
48964;BME280;34776;48.180;16.420;2023-02-04T08:15:51;100784.00;;;3.95;59.17
48964;BME280;34776;48.180;16.420;2023-02-04T08:18:16;100805.88;;;3.98;58.85
48964;BME280;34776;48.180;16.420;2023-02-04T08:20:42;100801.44;;;4.05;58.94
48964;BME280;34776;48.180;16.420;2023-02-04T08:23:07;100794.44;;;4.05;59.16
48964;BME280;34776;48.180;16.420;2023-02-04T08:25:33;100798.75;;;4.14;58.98
48964;BME280;34776;48.180;16.420;2023-02-04T08:27:58;100826.72;;;4.23;58.34
48964;BME280;34776;48.180;16.420;2023-02-04T08:30:23;100819.72;;;4.20;57.88
48964;BME280;34776;48.180;16.420;2023-02-04T08:32:49;100835.41;;;4.31;57.36
48964;BME280;34776;48.180;16.420;2023-02-04T08:35:14;100825.34;;;4.73;55.79
48964;BME280;34776;48.180;16.420;2023-02-04T08:37:40;100830.63;;;4.72;55.59
48964;BME280;34776;48.180;16.420;2023-02-04T08:40:05;100853.50;;;4.63;55.24
48964;BME280;34776;48.180;16.420;2023-02-04T08:42:31;100858.06;;;4.47;55.36
48964;BME280;34776;48.180;16.420;2023-02-04T08:44:56;100878.13;;;4.59;55.19
48964;BME280;34776;48.180;16.420;2023-02-04T08:47:21;100853.50;;;4.63;54.59
48964;BME280;34776;48.180;16.420;2023-02-04T08:49:47;100870.72;;;4.95;54.62
48964;BME280;34776;48.180;16.420;2023-02-04T08:52:12;100868.22;;;5.56;54.07
48964;BME280;34776;48.180;16.420;2023-02-04T08:54:37;100877.75;;;6.26;52.55
48964;BME280;34776;48.180;16.420;2023-02-04T08:57:03;100870.91;;;7.53;51.47
48964;BME280;34776;48.180;16.420;2023-02-04T08:59:28;100879.28;;;8.83;48.94
48964;BME280;34776;48.180;16.420;2023-02-04T09:01:54;100882.47;;;9.27;48.15
48964;BME280;34776;48.180;16.420;2023-02-04T09:04:20;100889.53;;;9.86;46.05
48964;BME280;34776;48.180;16.420;2023-02-04T09:06:46;100902.03;;;10.39;44.90
48964;BME280;34776;48.180;16.420;2023-02-04T09:09:13;100908.50;;;10.83;43.65
48964;BME280;34776;48.180;16.420;2023-02-04T09:11:38;100920.38;;;10.98;42.94
48964;BME280;34776;48.180;16.420;2023-02-04T09:14:04;100917.56;;;9.96;42.99
48964;BME280;34776;48.180;16.420;2023-02-04T09:16:30;100961.72;;;8.72;44.64
48964;BME280;34776;48.180;16.420;2023-02-04T09:18:55;100940.81;;;8.22;45.09
48964;BME280;34776;48.180;16.420;2023-02-04T09:21:22;100967.94;;;7.49;46.33
48964;BME280;34776;48.180;16.420;2023-02-04T09:23:47;100968.28;;;6.84;47.13
48964;BME280;34776;48.180;16.420;2023-02-04T09:26:13;100974.47;;;6.30;48.16
48964;BME280;34776;48.180;16.420;2023-02-04T09:28:38;100986.59;;;5.77;49.14
48964;BME280;34776;48.180;16.420;2023-02-04T09:31:04;101005.34;;;5.53;50.34
48964;BME280;34776;48.180;16.420;2023-02-04T09:33:31;101020.53;;;5.29;50.61
48964;BME280;34776;48.180;16.420;2023-02-04T09:35:57;101013.78;;;5.00;51.13
48964;BME280;34776;48.180;16.420;2023-02-04T09:38:23;101006.09;;;4.79;52.08
48964;BME280;34776;48.180;16.420;2023-02-04T09:40:55;101028.13;;;4.65;52.02
48964;BME280;34776;48.180;16.420;2023-02-04T09:43:24;101035.22;;;4.56;52.43
48964;BME280;34776;48.180;16.420;2023-02-04T09:45:51;101031.66;;;4.64;52.18
48964;BME280;34776;48.180;16.420;2023-02-04T09:48:17;101038.78;;;4.48;51.76
48964;BME280;34776;48.180;16.420;2023-02-04T09:50:43;101024.81;;;4.36;51.90
48964;BME280;34776;48.180;16.420;2023-02-04T09:53:12;101050.31;;;4.27;51.79
48964;BME280;34776;48.180;16.420;2023-02-04T09:55:40;101038.88;;;4.33;52.25
48964;BME280;34776;48.180;16.420;2023-02-04T09:58:13;101053.81;;;4.31;50.25
48964;BME280;34776;48.180;16.420;2023-02-04T10:00:40;101065.22;;;4.24;51.49
48964;BME280;34776;48.180;16.420;2023-02-04T10:03:15;101055.56;;;4.27;51.51
48964;BME280;34776;48.180;16.420;2023-02-04T10:05:42;101058.91;;;4.54;51.55
48964;BME280;34776;48.180;16.420;2023-02-04T10:08:12;101089.69;;;4.43;51.17
48964;BME280;34776;48.180;16.420;2023-02-04T10:10:38;101076.59;;;4.37;50.79
48964;BME280;34776;48.180;16.420;2023-02-04T10:13:04;101085.31;;;4.42;50.66
48964;BME280;34776;48.180;16.420;2023-02-04T10:15:30;101099.34;;;4.44;50.79
48964;BME280;34776;48.180;16.420;2023-02-04T10:18:06;101097.53;;;4.51;49.25
48964;BME280;34776;48.180;16.420;2023-02-04T10:20:32;101103.75;;;4.43;49.62
48964;BME280;34776;48.180;16.420;2023-02-04T10:22:58;101110.78;;;4.37;50.49
48964;BME280;34776;48.180;16.420;2023-02-04T10:25:25;101128.34;;;4.30;50.52
48964;BME280;34776;48.180;16.420;2023-02-04T10:27:55;101129.22;;;4.34;50.67
48964;BME280;34776;48.180;16.420;2023-02-04T10:30:41;101131.88;;;4.27;48.87
48964;BME280;34776;48.180;16.420;2023-02-04T10:33:14;101145.94;;;4.20;47.02
48964;BME280;34776;48.180;16.420;2023-02-04T10:35:45;101148.59;;;4.11;49.73
48964;BME280;34776;48.180;16.420;2023-02-04T10:38:11;101145.97;;;4.10;50.31
48964;BME280;34776;48.180;16.420;2023-02-04T10:40:36;101154.72;;;4.13;49.50
48964;BME280;34776;48.180;16.420;2023-02-04T10:43:10;101143.38;;;3.97;47.31
48964;BME280;34776;48.180;16.420;2023-02-04T10:45:36;101153.03;;;4.01;49.27
48964;BME280;34776;48.180;16.420;2023-02-04T10:48:03;101152.03;;;4.32;49.39
48964;BME280;34776;48.180;16.420;2023-02-04T10:50:28;101145.66;;;4.76;48.99
48964;BME280;34776;48.180;16.420;2023-02-04T10:52:58;101148.16;;;4.97;48.17
48964;BME280;34776;48.180;16.420;2023-02-04T10:55:46;101152.56;;;4.95;47.27
48964;BME280;34776;48.180;16.420;2023-02-04T10:58:19;101143.81;;;4.92;46.26
48964;BME280;34776;48.180;16.420;2023-02-04T11:00:48;101151.78;;;4.78;46.65
48964;BME280;34776;48.180;16.420;2023-02-04T11:03:22;101134.25;;;4.74;44.65
48964;BME280;34776;48.180;16.420;2023-02-04T11:05:48;101161.38;;;4.88;46.92
48964;BME280;34776;48.180;16.420;2023-02-04T11:08:24;101159.63;;;4.92;45.32
48964;BME280;34776;48.180;16.420;2023-02-04T11:11:00;101151.69;;;4.93;44.49
48964;BME280;34776;48.180;16.420;2023-02-04T11:13:41;101165.75;;;4.92;43.36
48964;BME280;34776;48.180;16.420;2023-02-04T11:18:56;101181.66;;;4.74;45.40
48964;BME280;34776;48.180;16.420;2023-02-04T11:29:07;101215.03;;;4.67;48.93
48964;BME280;34776;48.180;16.420;2023-02-04T11:37:27;101206.81;;;5.22;48.16
48964;BME280;34776;48.180;16.420;2023-02-04T11:39:47;101202.09;;;5.67;48.88
48964;BME280;34776;48.180;16.420;2023-02-04T11:42:21;101217.81;;;5.78;48.08
48964;BME280;34776;48.180;16.420;2023-02-04T11:45:04;101202.09;;;5.66;47.64
48964;BME280;34776;48.180;16.420;2023-02-04T11:47:33;101214.50;;;5.55;46.64
48964;BME280;34776;48.180;16.420;2023-02-04T11:50:03;101203.97;;;5.52;48.92
48964;BME280;34776;48.180;16.420;2023-02-04T11:52:34;101209.13;;;5.65;48.78
48964;BME280;34776;48.180;16.420;2023-02-04T11:55:00;101217.88;;;5.69;48.24
48964;BME280;34776;48.180;16.420;2023-02-04T11:57:25;101213.44;;;5.71;47.90
48964;BME280;34776;48.180;16.420;2023-02-04T11:59:52;101214.41;;;5.67;47.46
48964;BME280;34776;48.180;16.420;2023-02-04T12:02:20;101215.91;;;5.96;47.59
48964;BME280;34776;48.180;16.420;2023-02-04T12:05:13;101223.84;;;5.93;45.33
48964;BME280;34776;48.180;16.420;2023-02-04T12:07:39;101218.72;;;5.76;46.97
48964;BME280;34776;48.180;16.420;2023-02-04T12:12:51;101230.47;;;5.33;44.94
48964;BME280;34776;48.180;16.420;2023-02-04T12:15:23;101235.84;;;5.21;46.45
48964;BME280;34776;48.180;16.420;2023-02-04T12:18:05;101216.31;;;5.43;45.39
48964;BME280;34776;48.180;16.420;2023-02-04T12:20:32;101226.72;;;5.65;46.19
48964;BME280;34776;48.180;16.420;2023-02-04T12:22:57;101223.03;;;5.86;45.82
48964;BME280;34776;48.180;16.420;2023-02-04T12:25:23;101233.59;;;5.84;45.44
48964;BME280;34776;48.180;16.420;2023-02-04T12:27:48;101229.41;;;5.59;45.34
48964;BME280;34776;48.180;16.420;2023-02-04T12:30:15;101219.09;;;5.26;45.44
48964;BME280;34776;48.180;16.420;2023-02-04T12:32:42;101222.78;;;5.01;45.35
48964;BME280;34776;48.180;16.420;2023-02-04T12:35:08;101221.13;;;4.81;46.57
48964;BME280;34776;48.180;16.420;2023-02-04T12:37:33;101224.56;;;4.91;46.57
48964;BME280;34776;48.180;16.420;2023-02-04T12:39:58;101234.25;;;4.92;46.57
48964;BME280;34776;48.180;16.420;2023-02-04T12:42:24;101238.63;;;4.90;46.79
48964;BME280;34776;48.180;16.420;2023-02-04T12:44:50;101227.19;;;4.94;47.18
48964;BME280;34776;48.180;16.420;2023-02-04T12:47:16;101249.09;;;5.01;46.48
48964;BME280;34776;48.180;16.420;2023-02-04T12:49:41;101234.19;;;4.95;45.95
48964;BME280;34776;48.180;16.420;2023-02-04T12:52:07;101235.94;;;5.02;46.02
48964;BME280;34776;48.180;16.420;2023-02-04T12:54:33;101247.25;;;5.23;45.77
48964;BME280;34776;48.180;16.420;2023-02-04T12:56:58;101256.81;;;5.38;44.85
48964;BME280;34776;48.180;16.420;2023-02-04T12:59:24;101253.25;;;5.40;44.81
48964;BME280;34776;48.180;16.420;2023-02-04T13:01:50;101254.88;;;5.58;44.48
48964;BME280;34776;48.180;16.420;2023-02-04T13:04:15;101265.28;;;5.78;44.02
48964;BME280;34776;48.180;16.420;2023-02-04T13:06:41;101261.72;;;5.82;43.38
48964;BME280;34776;48.180;16.420;2023-02-04T13:09:06;101254.13;;;5.42;42.66
48964;BME280;34776;48.180;16.420;2023-02-04T13:11:31;101276.34;;;4.95;43.29